Graymont, Illinois
Current Conditions -  °F | °C
As of 6:35 AM on Thursday 23 Oct 2014 (Local Time) from KPNT Reporting Station
Clear Clear  
Wind Chill: 26°   Ceiling: Unl
Heat Index: 32°   Visibility: 7mi
Dew Point: 32°   Wind: 6mph
Humidity: 99%   Direction: 120°ESE
Pressure: 30.22"   Gusts: NA
Location:  40.88°N, 88.78°W
Report Text: KPNT 231135Z AUTO 12005KT 7SM CLR 00/00 A3022 RMK AO2 T00001002
Loading
Personal Weather Stations






























Interactive Weather Map
Tropical Storm Tracking
New forecast layout! Learn more

10-Day Weather Forecast

Advertisements
Track Severe Weather on mobile